Rhapsody Of The Seas — C6UA2 — position and weather

sailwx.info

Track history (hours):
 
Tides and Currents Weather Stations Pressure Air Temp Water Temp Dewpoint Dewpoint Depression Visibility Wind Speed Wind Dir Waves Ship Positions

Rhapsody Of The Seas

Last reported at 2018-Oct-24 04:30 UTC. Time now 2018-Oct-24 04:37 UTC.
Position N 37°27' E 025°19'.

Type: Passenger vessel. MMSI: 311805000.

Date/timePositionNaut miles runAvg speedWind from/ knotsBaromVisibWave heightAir tempDewpointWater temp
2018-Oct-24 04:30N 37°27' E 025°19'0 0.0
2018-Oct-24 04:03N 37°27' E 025°19'0 0.2
2018-Oct-24 04:00N 37°27' E 025°19'1 2.4
2018-Oct-24 03:30N 37°28' E 025°18'4 9.9
2018-Oct-24 03:03N 37°29' E 025°13'0 9.8
2018-Oct-24 03:00N 37°29' E 025°12'5 9.8
2018-Oct-24 02:30N 37°30' E 025°06'4 9.9
2018-Oct-24 02:03N 37°32' E 025°01'110.2
2018-Oct-24 02:00N 37°32' E 025°00'7 9.8
2018-Oct-24 01:19N 37°33' E 024°52'2 9.5
2018-Oct-24 01:03N 37°33' E 024°49'0 9.3
2018-Oct-24 01:00N 37°33' E 024°48'4310.7
2018-Oct-23 21:00N 37°30' E 023°54'1111.9 030 / 251014.810.8 19.817.420.0
2018-Oct-23 20:04N 37°38' E 023°45'010.5
2018-Oct-23 20:02N 37°38' E 023°45'010.3
2018-Oct-23 20:00N 37°39' E 023°44'5 9.8
2018-Oct-23 19:30N 37°43' E 023°41'410.3
2018-Oct-23 19:03N 37°47' E 023°38'110.4
2018-Oct-23 19:00N 37°47' E 023°38'510.1
2018-Oct-23 18:30N 37°52' E 023°36'4 9.4
2018-Oct-23 18:03N 37°56' E 023°37'0 6.0
2018-Oct-23 18:00N 37°56' E 023°38'0 0.4
2018-Oct-23 17:29N 37°56' E 023°38'0 0.0
2018-Oct-23 17:02N 37°56' E 023°38'0 0.0
2018-Oct-23 16:59N 37°56' E 023°38'0 0.0
2018-Oct-23 16:29N 37°56' E 023°38'0 0.0
2018-Oct-23 16:02N 37°56' E 023°38'0 0.1
2018-Oct-23 15:59N 37°56' E 023°38'0 0.0
2018-Oct-23 15:29N 37°56' E 023°38'0 0.0
2018-Oct-23 15:02N 37°56' E 023°38'0 0.0
2018-Oct-23 14:59N 37°56' E 023°38'0 0.0
2018-Oct-23 14:02N 37°56' E 023°38'0 0.0
2018-Oct-23 13:29N 37°56' E 023°38'0 0.0
2018-Oct-23 13:02N 37°56' E 023°38'0 0.1
2018-Oct-23 12:59N 37°56' E 023°38'0 0.0
2018-Oct-23 12:29N 37°56' E 023°38'0 0.0
2018-Oct-23 11:59N 37°56' E 023°38'0 0.0
2018-Oct-23 11:29N 37°56' E 023°38'0 0.0
2018-Oct-23 10:59N 37°56' E 023°38'0 0.0
2018-Oct-23 10:29N 37°56' E 023°38'0 0.0
2018-Oct-23 10:02N 37°56' E 023°38'0 0.0
2018-Oct-23 09:59N 37°56' E 023°38'0 0.0
2018-Oct-23 09:29N 37°56' E 023°38'0 0.0
2018-Oct-23 09:02N 37°56' E 023°38'0 0.0
2018-Oct-23 09:00N 37°56' E 023°38'2 3.3
2018-Oct-23 08:30N 37°55' E 023°36'817.5
2018-Oct-23 08:03N 37°48' E 023°41'120.3
2018-Oct-23 08:00N 37°47' E 023°41'1019.8
2018-Oct-23 07:29N 37°37' E 023°45'33410.0
2018-Oct-21 22:00N 41°36' E 018°42'29211.1 050 / 361019.910.8 18.816.621.0
2018-Oct-20 19:35N 44°39' E 013°31'120.6
2018-Oct-20 19:31N 44°41' E 013°29'1120.6
2018-Oct-20 19:00N 44°50' E 013°22'1020.7
2018-Oct-20 18:30N 44°57' E 013°12'920.5
2018-Oct-20 18:03N 45°04' E 013°03'120.4
2018-Oct-20 18:00N 45°05' E 013°02'1020.2
2018-Oct-20 17:30N 45°11' E 012°51'920.1
2018-Oct-20 17:03N 45°17' E 012°41'120.1
2018-Oct-20 17:00N 45°17' E 012°40'917.8
2018-Oct-20 16:30N 45°23' E 012°30'511.3
2018-Oct-20 16:03N 45°26' E 012°24'0 7.8
2018-Oct-20 16:00N 45°26' E 012°24'3 5.1
2018-Oct-20 15:30N 45°26' E 012°20'1 2.7
2018-Oct-20 15:03N 45°26' E 012°19'0 0.1
2018-Oct-20 14:54N 45°26' E 012°19'0 0.0
2018-Oct-20 14:30N 45°26' E 012°19'0 0.0
2018-Oct-20 14:00N 45°26' E 012°19'0 0.0
2018-Oct-20 13:27N 45°26' E 012°19'0 0.0
2018-Oct-20 12:57N 45°26' E 012°19'0 0.0
2018-Oct-20 12:27N 45°26' E 012°19'0 0.0
2018-Oct-20 12:03N 45°26' E 012°19'0 0.0
2018-Oct-20 12:00N 45°26' E 012°19'0 0.0
2018-Oct-20 11:30N 45°26' E 012°19'0 0.0
2018-Oct-20 11:00N 45°26' E 012°19'0 0.0
2018-Oct-20 10:30N 45°26' E 012°19'0 0.0
2018-Oct-20 10:03N 45°26' E 012°19'0 0.0
2018-Oct-20 10:00N 45°26' E 012°19'0 0.0
2018-Oct-20 09:27N 45°26' E 012°19'0 0.0
2018-Oct-20 08:57N 45°26' E 012°19'0 0.0
2018-Oct-20 08:30N 45°26' E 012°19'0 0.0
2018-Oct-20 08:03N 45°26' E 012°19'0 0.1
2018-Oct-20 07:57N 45°26' E 012°19'0 0.0
2018-Oct-20 07:30N 45°26' E 012°19'0 0.0
2018-Oct-20 07:03N 45°26' E 012°19'0 0.0
2018-Oct-20 06:51N 45°26' E 012°19'0 0.0
2018-Oct-20 06:27N 45°26' E 012°19'0 0.0
2018-Oct-20 06:03N 45°26' E 012°19'0 0.0
2018-Oct-20 05:57N 45°26' E 012°19'0 0.0
2018-Oct-20 05:27N 45°26' E 012°19'0 0.1
2018-Oct-20 05:00N 45°26' E 012°19'0 0.1
2018-Oct-20 04:30N 45°26' E 012°19'1 3.1
2018-Oct-20 04:03N 45°26' E 012°21'0 6.5
2018-Oct-20 04:00N 45°26' E 012°21'3 5.4
2018-Oct-20 03:30N 45°26' E 012°25'511.5
2018-Oct-20 03:03N 45°23' E 012°31'115.7
2018-Oct-20 03:01N 45°23' E 012°32'815.0
2018-Oct-20 02:30N 45°18' E 012°40'715.0
2018-Oct-20 02:03N 45°13' E 012°47'115.2
2018-Oct-20 02:00N 45°13' E 012°48'815.4
2018-Oct-20 01:31N 45°09' E 012°57'715.8
2018-Oct-20 01:03N 45°05' E 013°06'115.6
2018-Oct-20 01:01N 45°04' E 013°07'815.1
2018-Oct-20 00:30N 45°00' E 013°16'715.5
2018-Oct-20 00:03N 44°55' E 013°22'115.6
2018-Oct-20 00:00N 44°54' E 013°23'815.6
2018-Oct-19 23:30N 44°48' E 013°29'715.6
2018-Oct-19 23:03N 44°42' E 013°34'115.6
2018-Oct-19 23:00N 44°41' E 013°35'815.7
2018-Oct-19 22:30N 44°35' E 013°41'715.7
2018-Oct-19 22:03N 44°29' E 013°46'115.8
2018-Oct-19 22:00N 44°28' E 013°47'917.4
2018-Oct-19 21:30N 44°21' E 013°54'1019.6
2018-Oct-19 21:00N 44°12' E 014°00'414.9 010 / 211020.910.8 20.218.619.5
2018-Oct-19 20:43N 44°10' E 014°05'617.2
2018-Oct-19 20:21N 44°05' E 014°10'517.4
2018-Oct-19 20:03N 44°01' E 014°15'117.2
2018-Oct-19 20:00N 44°00' E 014°15'5217.1
2018-Oct-19 16:58N 43°20' E 015°01'29717.5
2018-Oct-19 00:00N 39°30' E 019°12'   050 / 131018.910.8 21.021.021.6
2018-Oct-16 17:00N 36°30' E 021°54'394 9.0 160 / 121022.910.8
2018-Oct-14 21:00N 42°18' E 017°54'   360 / 81022.9 20.919.321.0
Track history (hours):
 
Tides and Currents Weather Stations Pressure Air Temp Water Temp Dewpoint Dewpoint Depression Visibility Wind Speed Wind Dir Waves Ship Positions

Rhapsody Of The Seas

Last reported at 2018-Oct-24 04:30 UTC. Time now 2018-Oct-24 04:37 UTC.
Position N 37°27' E 025°19'.

Type: Passenger vessel. MMSI: 311805000.

Date/timePositionNaut miles runAvg speedWind from/ knotsBaromVisibWave heightAir tempDewpointWater temp
2018-Oct-24 04:30N 37°27' E 025°19'0 0.0
2018-Oct-24 04:03N 37°27' E 025°19'0 0.2
2018-Oct-24 04:00N 37°27' E 025°19'1 2.4
2018-Oct-24 03:30N 37°28' E 025°18'4 9.9
2018-Oct-24 03:03N 37°29' E 025°13'0 9.8
2018-Oct-24 03:00N 37°29' E 025°12'5 9.8
2018-Oct-24 02:30N 37°30' E 025°06'4 9.9
2018-Oct-24 02:03N 37°32' E 025°01'110.2
2018-Oct-24 02:00N 37°32' E 025°00'7 9.8
2018-Oct-24 01:19N 37°33' E 024°52'2 9.5
2018-Oct-24 01:03N 37°33' E 024°49'0 9.3
2018-Oct-24 01:00N 37°33' E 024°48'4310.7
2018-Oct-23 21:00N 37°30' E 023°54'1111.9 030 / 251014.810.8 19.817.420.0
2018-Oct-23 20:04N 37°38' E 023°45'010.5
2018-Oct-23 20:02N 37°38' E 023°45'010.3
2018-Oct-23 20:00N 37°39' E 023°44'5 9.8
2018-Oct-23 19:30N 37°43' E 023°41'410.3
2018-Oct-23 19:03N 37°47' E 023°38'110.4
2018-Oct-23 19:00N 37°47' E 023°38'510.1
2018-Oct-23 18:30N 37°52' E 023°36'4 9.4
2018-Oct-23 18:03N 37°56' E 023°37'0 6.0
2018-Oct-23 18:00N 37°56' E 023°38'0 0.4
2018-Oct-23 17:29N 37°56' E 023°38'0 0.0
2018-Oct-23 17:02N 37°56' E 023°38'0 0.0
2018-Oct-23 16:59N 37°56' E 023°38'0 0.0
2018-Oct-23 16:29N 37°56' E 023°38'0 0.0
2018-Oct-23 16:02N 37°56' E 023°38'0 0.1
2018-Oct-23 15:59N 37°56' E 023°38'0 0.0
2018-Oct-23 15:29N 37°56' E 023°38'0 0.0
2018-Oct-23 15:02N 37°56' E 023°38'0 0.0
2018-Oct-23 14:59N 37°56' E 023°38'0 0.0
2018-Oct-23 14:02N 37°56' E 023°38'0 0.0
2018-Oct-23 13:29N 37°56' E 023°38'0 0.0
2018-Oct-23 13:02N 37°56' E 023°38'0 0.1
2018-Oct-23 12:59N 37°56' E 023°38'0 0.0
2018-Oct-23 12:29N 37°56' E 023°38'0 0.0
2018-Oct-23 11:59N 37°56' E 023°38'0 0.0
2018-Oct-23 11:29N 37°56' E 023°38'0 0.0
2018-Oct-23 10:59N 37°56' E 023°38'0 0.0
2018-Oct-23 10:29N 37°56' E 023°38'0 0.0
2018-Oct-23 10:02N 37°56' E 023°38'0 0.0
2018-Oct-23 09:59N 37°56' E 023°38'0 0.0
2018-Oct-23 09:29N 37°56' E 023°38'0 0.0
2018-Oct-23 09:02N 37°56' E 023°38'0 0.0
2018-Oct-23 09:00N 37°56' E 023°38'2 3.3
2018-Oct-23 08:30N 37°55' E 023°36'817.5
2018-Oct-23 08:03N 37°48' E 023°41'120.3
2018-Oct-23 08:00N 37°47' E 023°41'1019.8
2018-Oct-23 07:29N 37°37' E 023°45'33410.0
2018-Oct-21 22:00N 41°36' E 018°42'29211.1 050 / 361019.910.8 18.816.621.0
2018-Oct-20 19:35N 44°39' E 013°31'120.6
2018-Oct-20 19:31N 44°41' E 013°29'1120.6
2018-Oct-20 19:00N 44°50' E 013°22'1020.7
2018-Oct-20 18:30N 44°57' E 013°12'920.5
2018-Oct-20 18:03N 45°04' E 013°03'120.4
2018-Oct-20 18:00N 45°05' E 013°02'1020.2
2018-Oct-20 17:30N 45°11' E 012°51'920.1
2018-Oct-20 17:03N 45°17' E 012°41'120.1
2018-Oct-20 17:00N 45°17' E 012°40'917.8
2018-Oct-20 16:30N 45°23' E 012°30'511.3
2018-Oct-20 16:03N 45°26' E 012°24'0 7.8
2018-Oct-20 16:00N 45°26' E 012°24'3 5.1
2018-Oct-20 15:30N 45°26' E 012°20'1 2.7
2018-Oct-20 15:03N 45°26' E 012°19'0 0.1
2018-Oct-20 14:54N 45°26' E 012°19'0 0.0
2018-Oct-20 14:30N 45°26' E 012°19'0 0.0
2018-Oct-20 14:00N 45°26' E 012°19'0 0.0
2018-Oct-20 13:27N 45°26' E 012°19'0 0.0
2018-Oct-20 12:57N 45°26' E 012°19'0 0.0
2018-Oct-20 12:27N 45°26' E 012°19'0 0.0
2018-Oct-20 12:03N 45°26' E 012°19'0 0.0
2018-Oct-20 12:00N 45°26' E 012°19'0 0.0
2018-Oct-20 11:30N 45°26' E 012°19'0 0.0
2018-Oct-20 11:00N 45°26' E 012°19'0 0.0
2018-Oct-20 10:30N 45°26' E 012°19'0 0.0
2018-Oct-20 10:03N 45°26' E 012°19'0 0.0
2018-Oct-20 10:00N 45°26' E 012°19'0 0.0
2018-Oct-20 09:27N 45°26' E 012°19'0 0.0
2018-Oct-20 08:57N 45°26' E 012°19'0 0.0
2018-Oct-20 08:30N 45°26' E 012°19'0 0.0
2018-Oct-20 08:03N 45°26' E 012°19'0 0.1
2018-Oct-20 07:57N 45°26' E 012°19'0 0.0
2018-Oct-20 07:30N 45°26' E 012°19'0 0.0
2018-Oct-20 07:03N 45°26' E 012°19'0 0.0
2018-Oct-20 06:51N 45°26' E 012°19'0 0.0
2018-Oct-20 06:27N 45°26' E 012°19'0 0.0
2018-Oct-20 06:03N 45°26' E 012°19'0 0.0
2018-Oct-20 05:57N 45°26' E 012°19'0 0.0
2018-Oct-20 05:27N 45°26' E 012°19'0 0.1
2018-Oct-20 05:00N 45°26' E 012°19'0 0.1
2018-Oct-20 04:30N 45°26' E 012°19'1 3.1
2018-Oct-20 04:03N 45°26' E 012°21'0 6.5
2018-Oct-20 04:00N 45°26' E 012°21'3 5.4
2018-Oct-20 03:30N 45°26' E 012°25'511.5
2018-Oct-20 03:03N 45°23' E 012°31'115.7
2018-Oct-20 03:01N 45°23' E 012°32'815.0
2018-Oct-20 02:30N 45°18' E 012°40'715.0
2018-Oct-20 02:03N 45°13' E 012°47'115.2
2018-Oct-20 02:00N 45°13' E 012°48'815.4
2018-Oct-20 01:31N 45°09' E 012°57'715.8
2018-Oct-20 01:03N 45°05' E 013°06'115.6
2018-Oct-20 01:01N 45°04' E 013°07'815.1
2018-Oct-20 00:30N 45°00' E 013°16'715.5
2018-Oct-20 00:03N 44°55' E 013°22'115.6
2018-Oct-20 00:00N 44°54' E 013°23'815.6
2018-Oct-19 23:30N 44°48' E 013°29'715.6
2018-Oct-19 23:03N 44°42' E 013°34'115.6
2018-Oct-19 23:00N 44°41' E 013°35'815.7
2018-Oct-19 22:30N 44°35' E 013°41'715.7
2018-Oct-19 22:03N 44°29' E 013°46'115.8
2018-Oct-19 22:00N 44°28' E 013°47'917.4
2018-Oct-19 21:30N 44°21' E 013°54'1019.6
2018-Oct-19 21:00N 44°12' E 014°00'414.9 010 / 211020.910.8 20.218.619.5
2018-Oct-19 20:43N 44°10' E 014°05'617.2
2018-Oct-19 20:21N 44°05' E 014°10'517.4
2018-Oct-19 20:03N 44°01' E 014°15'117.2
2018-Oct-19 20:00N 44°00' E 014°15'5217.1
2018-Oct-19 16:58N 43°20' E 015°01'29717.5
2018-Oct-19 00:00N 39°30' E 019°12'   050 / 131018.910.8 21.021.021.6
2018-Oct-16 17:00N 36°30' E 021°54'394 9.0 160 / 121022.910.8
2018-Oct-14 21:00N 42°18' E 017°54'   360 / 81022.9 20.919.321.0

Dump ship's entire track history